Time;durP1;ratioP1;P1;durP2;ratioP2;P2;SDS_P1;SDS_P2;PMS_P1;PMS_P2;Temp;Humidity;BMP_temperature;BMP_pressure;BME280_temperature;BME280_humidity;BME280_pressure;Samples;Min_cycle;Max_cycle;Signal;HPM_P1;HPM_P2
2022/04/16 00:00:17;;;;;;;4.47;2.33;;;5.00;99.90;;;;;;4887426;29;20295;-73
2022/04/16 00:02:43;;;;;;;6.57;2.60;;;5.00;99.90;;;;;;4900653;29;20241;-73
2022/04/16 00:05:09;;;;;;;10.23;3.53;;;5.00;99.90;;;;;;4896910;29;20213;-75
2022/04/16 00:07:34;;;;;;;3.80;2.40;;;5.00;99.90;;;;;;4880911;29;20300;-73
2022/04/16 00:10:00;;;;;;;5.97;2.37;;;5.00;99.90;;;;;;4899175;29;20221;-72
2022/04/16 00:12:27;;;;;;;5.70;1.70;;;5.00;99.90;;;;;;4897948;29;20221;-72
2022/04/16 00:14:53;;;;;;;3.97;1.80;;;5.00;99.90;;;;;;4897947;29;20711;-72
2022/04/16 00:17:19;;;;;;;5.63;1.70;;;5.00;99.90;;;;;;4903070;29;20300;-73
2022/04/16 00:19:44;;;;;;;5.27;1.87;;;5.00;99.90;;;;;;4885477;29;20315;-73
2022/04/16 00:22:12;;;;;;;3.73;1.60;;;4.90;99.90;;;;;;4899422;29;20177;-72
2022/04/16 00:24:38;;;;;;;4.80;2.10;;;5.00;99.90;;;;;;4881787;29;20690;-73
2022/04/16 00:27:04;;;;;;;3.73;1.90;;;5.00;99.90;;;;;;4881211;29;20220;-71
2022/04/16 00:29:30;;;;;;;3.63;1.70;;;5.00;99.90;;;;;;4913093;29;20220;-72
2022/04/16 00:31:56;;;;;;;4.03;1.90;;;5.00;99.90;;;;;;4917478;29;20212;-71
2022/04/16 00:34:21;;;;;;;4.40;2.10;;;4.90;99.90;;;;;;4919018;29;20642;-74
2022/04/16 00:36:48;;;;;;;3.47;1.80;;;4.90;99.90;;;;;;4910528;29;20206;-74
2022/04/16 00:39:13;;;;;;;3.93;1.90;;;5.00;99.90;;;;;;4926066;29;20269;-72
2022/04/16 00:41:40;;;;;;;2.90;1.67;;;4.90;99.90;;;;;;4918877;29;20360;-72
2022/04/16 00:44:06;;;;;;;3.00;1.50;;;4.80;99.90;;;;;;4909826;29;20222;-76
2022/04/16 00:46:32;;;;;;;4.50;2.50;;;4.90;99.90;;;;;;4902420;29;20581;-75
2022/04/16 00:48:58;;;;;;;2.37;1.60;;;4.90;99.90;;;;;;4918021;29;20195;-75
2022/04/16 00:51:24;;;;;;;5.23;2.20;;;4.90;99.90;;;;;;4902501;29;20188;-75
2022/04/16 00:53:49;;;;;;;6.27;1.67;;;5.00;99.90;;;;;;4918938;29;20774;-75
2022/04/16 00:56:15;;;;;;;3.13;1.50;;;4.80;99.90;;;;;;4930046;29;20261;-76
2022/04/16 00:58:41;;;;;;;4.07;1.93;;;4.80;99.90;;;;;;4918447;29;20219;-76
2022/04/16 01:01:07;;;;;;;2.73;1.60;;;4.80;99.90;;;;;;4936762;29;20543;-76
2022/04/16 01:03:32;;;;;;;3.30;1.73;;;4.70;99.90;;;;;;4936364;29;20870;-75
2022/04/16 01:05:58;;;;;;;5.67;1.90;;;4.70;99.90;;;;;;4918869;29;20211;-75
2022/04/16 01:08:24;;;;;;;4.97;2.00;;;4.80;99.90;;;;;;4918176;29;20222;-76
2022/04/16 01:10:49;;;;;;;4.93;2.10;;;4.50;99.90;;;;;;4918705;29;20200;-77
2022/04/16 01:13:18;;;;;;;5.87;1.70;;;4.50;99.90;;;;;;4935551;29;20231;-76
2022/04/16 01:15:44;;;;;;;5.53;2.10;;;4.60;99.90;;;;;;4937096;29;20538;-76
2022/04/16 01:18:12;;;;;;;6.63;2.33;;;4.60;99.90;;;;;;4957636;28;20211;-76
2022/04/16 01:20:39;;;;;;;5.37;2.43;;;4.60;99.90;;;;;;4947346;29;20219;-76
2022/04/16 01:23:05;;;;;;;8.83;2.93;;;4.50;99.90;;;;;;4936250;29;20351;-76
2022/04/16 01:25:33;;;;;;;4.03;1.50;;;4.50;99.90;;;;;;4918761;29;20227;-75
2022/04/16 01:28:00;;;;;;;4.27;1.80;;;4.50;99.90;;;;;;4915417;29;20187;-73
2022/04/16 01:30:25;;;;;;;2.37;1.40;;;4.50;99.90;;;;;;4936148;29;20172;-76
2022/04/16 01:32:52;;;;;;;4.77;2.10;;;4.50;99.90;;;;;;4935668;29;20234;-76
2022/04/16 01:35:18;;;;;;;4.37;1.80;;;4.40;99.90;;;;;;4935613;29;20258;-76
2022/04/16 01:37:44;;;;;;;3.23;1.43;;;4.40;99.90;;;;;;4935127;29;20247;-76
2022/04/16 01:40:14;;;;;;;6.90;2.10;;;4.40;99.90;;;;;;4935123;29;20278;-76
2022/04/16 01:42:41;;;;;;;6.30;2.20;;;4.30;99.90;;;;;;4935641;29;20574;-76
2022/04/16 01:45:09;;;;;;;4.00;1.80;;;4.30;99.90;;;;;;4935500;29;20266;-76
2022/04/16 01:47:36;;;;;;;5.27;1.90;;;4.30;99.90;;;;;;4935337;29;20593;-76
2022/04/16 01:50:10;;;;;;;6.43;1.83;;;4.30;99.90;;;;;;4934671;29;20213;-76
2022/04/16 01:52:36;;;;;;;6.53;2.23;;;4.20;99.90;;;;;;4935160;29;20219;-75
2022/04/16 01:55:02;;;;;;;6.00;2.10;;;4.30;99.90;;;;;;4918157;29;20175;-74
2022/04/16 01:57:27;;;;;;;5.83;2.00;;;4.20;99.90;;;;;;4932809;29;20187;-76
2022/04/16 01:59:53;;;;;;;5.10;2.03;;;4.20;99.90;;;;;;4934674;29;20278;-75
2022/04/16 02:02:19;;;;;;;4.13;1.60;;;4.20;99.90;;;;;;4935470;29;20217;-76
2022/04/16 02:04:45;;;;;;;7.07;2.03;;;4.20;99.90;;;;;;4918127;29;20296;-76
2022/04/16 02:07:11;;;;;;;4.33;1.90;;;4.10;99.90;;;;;;4935537;29;20328;-76
2022/04/16 02:09:37;;;;;;;8.37;2.03;;;4.10;99.90;;;;;;4934844;29;20215;-76
2022/04/16 02:12:03;;;;;;;4.03;1.73;;;4.10;99.90;;;;;;4934995;29;20218;-75
2022/04/16 02:14:37;;;;;;;4.00;1.80;;;4.20;99.90;;;;;;4918180;29;20306;-76
2022/04/16 02:17:03;;;;;;;5.23;1.67;;;4.10;99.90;;;;;;4909292;29;20221;-76
2022/04/16 02:19:29;;;;;;;7.03;1.90;;;4.10;99.90;;;;;;4914954;29;20216;-75
2022/04/16 02:21:54;;;;;;;3.13;1.77;;;4.10;99.90;;;;;;4916380;29;20184;-76
2022/04/16 02:24:20;;;;;;;3.93;1.63;;;4.10;99.90;;;;;;4915845;29;20220;-75
2022/04/16 02:26:45;;;;;;;2.70;1.60;;;4.00;99.90;;;;;;4909396;29;20218;-75
2022/04/16 02:29:12;;;;;;;4.87;1.77;;;4.10;99.90;;;;;;4919575;29;20210;-75
2022/04/16 02:31:38;;;;;;;6.37;2.10;;;4.10;99.90;;;;;;4906331;29;20223;-75
2022/04/16 02:34:05;;;;;;;5.63;1.97;;;4.20;99.90;;;;;;4915555;29;20212;-75
2022/04/16 02:36:34;;;;;;;4.57;1.60;;;4.20;99.90;;;;;;4916151;29;20633;-75
2022/04/16 02:39:00;;;;;;;3.17;1.70;;;4.30;99.90;;;;;;4903398;29;20223;-75
2022/04/16 02:41:27;;;;;;;5.17;2.00;;;4.20;99.90;;;;;;4910170;29;20262;-75
2022/04/16 02:43:55;;;;;;;5.43;1.67;;;4.20;99.90;;;;;;4916733;29;20250;-75
2022/04/16 02:49:06;;;;;;;4.87;1.80;;;4.10;99.90;;;;;;4914894;29;20199;-75
2022/04/16 02:51:32;;;;;;;6.57;2.00;;;4.00;99.90;;;;;;4915588;29;20253;-75
2022/04/16 02:53:57;;;;;;;5.00;1.77;;;4.00;99.90;;;;;;4914580;29;20222;-74
2022/04/16 02:56:23;;;;;;;5.30;2.70;;;4.00;99.90;;;;;;4915024;29;20230;-74
2022/04/16 02:58:48;;;;;;;7.17;2.00;;;4.00;99.90;;;;;;4914314;29;20214;-75
2022/04/16 03:01:15;;;;;;;7.67;1.80;;;4.10;99.90;;;;;;4915593;29;20303;-75
2022/04/16 03:03:41;;;;;;;3.70;1.90;;;4.10;99.90;;;;;;4915537;29;21412;-75
2022/04/16 03:06:06;;;;;;;3.90;1.70;;;4.20;99.90;;;;;;4915156;29;20215;-75
2022/04/16 03:08:32;;;;;;;6.27;1.80;;;4.30;99.90;;;;;;4914270;29;20220;-75
2022/04/16 03:10:57;;;;;;;5.60;1.50;;;4.30;99.90;;;;;;4903155;29;20282;-75
2022/04/16 03:13:23;;;;;;;4.47;1.77;;;4.30;99.90;;;;;;4928130;29;20233;-75
2022/04/16 03:18:33;;;;;;;6.23;2.03;;;4.40;99.90;;;;;;4934054;29;20221;-76
2022/04/16 03:20:59;;;;;;;3.93;1.80;;;4.40;99.90;;;;;;4943882;29;20215;-77
2022/04/16 03:23:25;;;;;;;3.40;1.67;;;4.30;99.90;;;;;;4936010;29;20227;-76
2022/04/16 03:25:53;;;;;;;5.83;1.90;;;4.30;99.90;;;;;;4943591;29;20226;-76
2022/04/16 03:28:19;;;;;;;2.60;1.67;;;4.40;99.90;;;;;;4934334;29;20218;-75
2022/04/16 03:30:45;;;;;;;4.77;2.30;;;4.40;99.90;;;;;;4936076;29;20197;-75
2022/04/16 03:33:11;;;;;;;4.87;2.10;;;4.50;99.90;;;;;;4923246;29;20222;-77
2022/04/16 03:35:36;;;;;;;3.77;1.63;;;4.40;99.90;;;;;;4940557;29;20206;-77
2022/04/16 03:38:02;;;;;;;4.07;1.93;;;4.40;99.90;;;;;;4939172;29;20207;-75
2022/04/16 03:40:27;;;;;;;3.07;1.77;;;4.50;99.90;;;;;;4957065;29;20226;-76
2022/04/16 03:42:58;;;;;;;5.63;1.83;;;4.50;99.90;;;;;;4940815;29;20210;-76
2022/04/16 03:45:31;;;;;;;3.73;1.80;;;4.50;99.90;;;;;;4940385;29;20230;-76
2022/04/16 03:47:58;;;;;;;4.53;1.80;;;4.40;99.90;;;;;;4950711;29;20196;-76
2022/04/16 03:50:26;;;;;;;5.87;1.80;;;4.50;99.90;;;;;;4936967;29;20222;-75
2022/04/16 03:52:52;;;;;;;6.73;2.47;;;4.50;99.90;;;;;;4939547;29;20226;-76
2022/04/16 04:00:49;;;;;;;4.37;1.80;;;4.50;99.90;;;;;;4939001;29;20207;-74
2022/04/16 04:03:15;;;;;;;6.33;1.77;;;4.50;99.90;;;;;;4937052;29;20210;-75
2022/04/16 04:05:42;;;;;;;5.93;1.80;;;4.50;99.90;;;;;;4936217;29;20226;-75
2022/04/16 04:08:09;;;;;;;3.30;1.70;;;4.50;99.90;;;;;;4956160;29;20323;-74
2022/04/16 04:10:35;;;;;;;2.47;1.60;;;4.60;99.90;;;;;;4955847;29;20218;-75
2022/04/16 04:13:02;;;;;;;3.07;1.80;;;4.60;99.90;;;;;;4954503;23;22545;-69
2022/04/16 04:15:29;;;;;;;3.37;1.50;;;4.50;99.90;;;;;;4947622;29;20197;-68
2022/04/16 04:17:54;;;;;;;6.27;2.33;;;4.40;99.90;;;;;;4951035;29;20242;-68
2022/04/16 04:20:20;;;;;;;3.20;1.73;;;4.40;99.90;;;;;;4944202;28;20241;-68
2022/04/16 04:22:45;;;;;;;6.17;2.13;;;4.40;99.90;;;;;;4946685;28;20720;-68
2022/04/16 04:25:11;;;;;;;4.27;1.93;;;4.50;99.90;;;;;;4955820;28;20266;-71
2022/04/16 04:27:36;;;;;;;6.63;2.00;;;4.40;99.90;;;;;;4955952;28;20192;-71
2022/04/16 04:30:04;;;;;;;5.57;1.60;;;4.40;99.90;;;;;;4955438;28;20285;-70
2022/04/16 04:32:30;;;;;;;4.90;1.73;;;4.50;99.90;;;;;;4951509;28;20574;-71
2022/04/16 04:34:55;;;;;;;2.47;1.83;;;4.50;99.90;;;;;;4955492;28;20265;-71
2022/04/16 04:37:21;;;;;;;3.63;1.60;;;4.50;99.90;;;;;;4955786;28;20302;-71
2022/04/16 04:39:46;;;;;;;5.43;1.97;;;4.50;99.90;;;;;;4938067;29;20214;-70
2022/04/16 04:42:12;;;;;;;7.30;2.30;;;4.40;99.90;;;;;;4955687;28;20241;-71
2022/04/16 04:44:38;;;;;;;3.80;1.60;;;4.50;99.90;;;;;;4938142;28;20218;-68
2022/04/16 04:47:03;;;;;;;8.20;1.80;;;4.60;99.90;;;;;;4955339;28;20229;-68
2022/04/16 04:49:29;;;;;;;4.47;2.00;;;4.60;99.90;;;;;;4954894;28;20218;-69
2022/04/16 04:51:55;;;;;;;5.00;1.73;;;4.50;99.90;;;;;;4956049;28;20179;-68
2022/04/16 04:54:21;;;;;;;3.33;1.50;;;4.60;99.90;;;;;;4938027;28;20622;-68
2022/04/16 04:56:47;;;;;;;4.63;1.83;;;4.70;99.90;;;;;;4955241;28;20258;-68
2022/04/16 04:59:13;;;;;;;4.50;1.60;;;4.80;99.90;;;;;;4954934;28;20695;-68
2022/04/16 05:01:38;;;;;;;5.57;2.57;;;4.90;99.90;;;;;;4955334;28;20214;-68
2022/04/16 05:04:04;;;;;;;6.37;1.83;;;5.00;99.90;;;;;;4954903;28;20695;-68
2022/04/16 05:06:29;;;;;;;3.80;1.50;;;5.10;99.90;;;;;;4955357;28;20262;-68
2022/04/16 05:08:55;;;;;;;5.27;2.20;;;5.20;99.90;;;;;;4937097;29;20226;-68
2022/04/16 05:11:21;;;;;;;3.77;1.60;;;5.30;99.90;;;;;;4937718;28;20211;-68
2022/04/16 05:13:46;;;;;;;4.83;2.03;;;5.40;99.90;;;;;;4954655;28;20310;-71
2022/04/16 05:16:13;;;;;;;2.87;1.57;;;5.50;99.90;;;;;;4954963;28;20186;-68
2022/04/16 05:18:38;;;;;;;5.07;1.87;;;5.60;99.90;;;;;;4953927;28;20182;-68
2022/04/16 05:21:04;;;;;;;6.53;2.90;;;5.80;99.90;;;;;;4954891;28;20218;-70
2022/04/16 05:23:29;;;;;;;3.07;1.60;;;5.90;99.90;;;;;;4954584;28;20298;-70
2022/04/16 05:25:55;;;;;;;4.30;1.50;;;6.10;99.90;;;;;;4954687;28;20215;-70
2022/04/16 05:28:20;;;;;;;1.73;1.30;;;6.20;99.90;;;;;;4953973;28;20207;-70
2022/04/16 05:30:48;;;;;;;3.87;1.80;;;6.10;99.90;;;;;;4947197;28;20184;-68
2022/04/16 05:36:02;;;;;;;2.47;1.70;;;6.10;99.90;;;;;;4948910;28;20222;-69
2022/04/16 05:38:28;;;;;;;5.80;1.57;;;6.10;99.90;;;;;;4936244;28;20219;-68
2022/04/16 05:40:53;;;;;;;4.50;1.37;;;6.00;99.90;;;;;;4954053;28;20215;-69
2022/04/16 05:43:19;;;;;;;5.27;1.90;;;6.10;99.90;;;;;;4954348;28;20223;-69
2022/04/16 05:45:44;;;;;;;4.10;1.97;;;6.00;99.90;;;;;;4937042;28;20293;-68
2022/04/16 05:48:10;;;;;;;3.10;1.60;;;6.10;99.90;;;;;;4936659;29;20215;-69
2022/04/16 05:50:35;;;;;;;3.60;1.70;;;6.20;99.90;;;;;;4954124;28;20215;-69
2022/04/16 05:53:01;;;;;;;4.00;1.60;;;6.20;99.90;;;;;;4954072;28;20221;-69
2022/04/16 05:55:26;;;;;;;4.03;1.60;;;6.40;99.90;;;;;;4953899;28;20215;-69
2022/04/16 05:57:52;;;;;;;4.00;1.60;;;6.40;99.90;;;;;;4954260;28;20187;-69
2022/04/16 06:00:17;;;;;;;1.97;1.50;;;6.50;99.90;;;;;;4936464;29;20677;-69
2022/04/16 06:02:43;;;;;;;3.60;1.70;;;6.60;99.90;;;;;;4936520;28;20297;-68
2022/04/16 06:05:09;;;;;;;4.97;2.60;;;6.80;99.90;;;;;;4936637;29;20213;-68
2022/04/16 06:07:34;;;;;;;6.07;2.17;;;6.80;99.90;;;;;;4953707;28;20214;-68
2022/04/16 06:10:00;;;;;;;3.67;1.90;;;7.00;99.90;;;;;;4935870;29;20588;-69
2022/04/16 06:12:26;;;;;;;5.50;1.97;;;7.10;99.90;;;;;;4952207;28;20179;-68
2022/04/16 06:14:53;;;;;;;4.53;2.47;;;7.40;99.90;;;;;;4953646;28;20617;-68
2022/04/16 06:17:19;;;;;;;5.13;2.53;;;7.50;99.90;;;;;;4953819;28;20237;-69
2022/04/16 06:19:44;;;;;;;6.50;2.73;;;8.10;99.90;;;;;;4935553;28;20365;-68
2022/04/16 06:22:12;;;;;;;5.27;2.50;;;8.10;99.90;;;;;;4953606;28;20182;-68
2022/04/16 06:24:42;;;;;;;3.03;2.20;;;8.30;99.90;;;;;;4953846;28;20195;-69
2022/04/16 06:27:08;;;;;;;5.20;2.70;;;8.60;99.90;;;;;;4953437;28;20215;-69
2022/04/16 06:29:33;;;;;;;4.73;2.03;;;8.20;99.90;;;;;;4951761;28;20217;-68
2022/04/16 06:31:59;;;;;;;5.00;2.40;;;8.10;99.90;;;;;;4936286;29;20692;-68
2022/04/16 06:34:24;;;;;;;4.93;1.97;;;7.90;99.90;;;;;;4953185;28;20290;-68
2022/04/16 06:36:50;;;;;;;4.83;2.10;;;7.70;99.90;;;;;;4953969;28;20180;-67
2022/04/16 06:39:16;;;;;;;5.37;2.90;;;7.20;99.90;;;;;;4952388;28;20218;-68
2022/04/16 06:41:41;;;;;;;3.30;2.00;;;7.30;99.90;;;;;;4953248;28;20618;-68
2022/04/16 06:44:07;;;;;;;5.83;2.20;;;6.70;99.90;;;;;;4936059;29;20214;-68
2022/04/16 06:46:32;;;;;;;3.57;2.30;;;6.50;99.90;;;;;;4953137;28;20218;-68
2022/04/16 06:48:58;;;;;;;4.40;2.40;;;6.50;99.90;;;;;;4952462;28;20186;-68
2022/04/16 06:51:24;;;;;;;6.30;3.03;;;6.50;99.90;;;;;;4935776;28;20197;-68
2022/04/16 06:53:49;;;;;;;5.40;2.60;;;6.60;99.90;;;;;;4952901;28;20246;-68
2022/04/16 06:56:15;;;;;;;5.03;2.70;;;7.00;99.90;;;;;;4952335;28;20223;-69
2022/04/16 06:58:40;;;;;;;3.90;2.80;;;6.90;99.90;;;;;;4951870;28;20222;-71
2022/04/16 07:01:06;;;;;;;4.00;2.30;;;7.10;99.90;;;;;;4953068;28;20660;-70
2022/04/16 07:03:31;;;;;;;5.17;2.57;;;7.30;99.90;;;;;;4953240;28;20199;-70
2022/04/16 07:05:57;;;;;;;4.07;2.30;;;7.30;99.90;;;;;;4935755;29;20219;-71
2022/04/16 07:08:22;;;;;;;4.53;2.00;;;8.20;99.90;;;;;;4952094;28;20762;-69
2022/04/16 07:10:48;;;;;;;3.00;1.80;;;8.70;99.90;;;;;;4952831;28;20290;-68
2022/04/16 07:13:13;;;;;;;3.70;1.80;;;8.90;99.90;;;;;;4952731;28;20585;-68
2022/04/16 07:15:39;;;;;;;4.80;2.23;;;9.40;99.90;;;;;;4953233;28;20563;-68
2022/04/16 07:18:07;;;;;;;3.47;1.60;;;10.20;99.90;;;;;;4952099;28;20214;-69
2022/04/16 07:20:32;;;;;;;2.57;1.40;;;10.80;99.90;;;;;;4952814;28;20211;-69
2022/04/16 07:22:57;;;;;;;6.70;1.80;;;12.00;99.90;;;;;;4952706;28;20562;-69
2022/04/16 07:25:23;;;;;;;7.72;2.38;;;14.40;99.90;;;;;;4935272;28;20219;-69
2022/04/16 07:27:49;;;;;;;4.68;1.80;;;15.60;99.90;;;;;;4952960;28;20181;-69
2022/04/16 07:30:14;;;;;;;5.18;1.77;;;13.70;99.90;;;;;;4952186;28;20207;-69
2022/04/16 07:32:40;;;;;;;3.35;1.52;;;13.00;99.90;;;;;;4952543;28;20210;-69
2022/04/16 07:35:06;;;;;;;5.28;2.28;;;12.60;99.90;;;;;;4952669;28;20230;-69
2022/04/16 07:37:32;;;;;;;2.63;1.25;;;13.00;99.90;;;;;;4952565;28;20290;-69
2022/04/16 07:39:57;;;;;;;5.20;1.33;;;12.80;99.90;;;;;;4951823;28;20735;-69
2022/04/16 07:42:31;;;;;;;2.03;1.20;;;11.40;99.90;;;;;;4956876;28;20205;-69
2022/04/16 07:44:57;;;;;;;1.53;1.00;;;11.90;99.90;;;;;;4939150;29;20596;-69
2022/04/16 07:47:22;;;;;;;3.40;1.30;;;10.90;99.90;;;;;;4957119;28;20219;-71
2022/04/16 07:49:48;;;;;;;4.17;1.53;;;10.40;99.90;;;;;;4955676;28;20587;-71
2022/04/16 07:52:14;;;;;;;1.70;1.03;;;10.80;99.90;;;;;;4956269;28;20555;-71
2022/04/16 07:54:39;;;;;;;3.27;1.43;;;11.70;99.90;;;;;;4956304;28;20211;-71
2022/04/16 07:57:06;;;;;;;1.97;1.17;;;12.00;99.90;;;;;;4955894;28;20712;-71
2022/04/16 07:59:32;;;;;;;1.83;1.07;;;13.10;99.90;;;;;;4955377;28;20261;-72
2022/04/16 08:01:57;;;;;;;2.30;1.45;;;14.00;99.90;;;;;;4956183;28;20210;-72
2022/04/16 08:04:23;;;;;;;3.07;1.10;;;15.50;99.90;;;;;;4955757;28;20223;-72
2022/04/16 08:06:49;;;;;;;1.92;1.00;;;13.50;99.90;;;;;;4956239;28;20328;-72
2022/04/16 08:09:14;;;;;;;2.50;1.08;;;14.20;99.90;;;;;;4956413;28;20718;-74
2022/04/16 08:11:40;;;;;;;3.15;2.17;;;15.60;99.90;;;;;;4951453;28;20808;-74
2022/04/16 08:14:06;;;;;;;3.53;2.00;;;15.40;99.90;;;;;;4932939;29;20224;-73
2022/04/16 08:16:32;;;;;;;5.28;2.03;;;17.40;99.90;;;;;;4953522;28;20224;-73
2022/04/16 08:18:57;;;;;;;3.33;1.58;;;17.80;99.90;;;;;;4954937;28;20181;-74
2022/04/16 08:21:25;;;;;;;1.85;1.02;;;17.90;99.90;;;;;;4955474;28;20182;-72
2022/04/16 08:23:56;;;;;;;3.65;2.08;;;18.40;97.70;;;;;;4937903;28;20222;-73
2022/04/16 08:26:24;;;;;;;3.17;1.25;;;18.40;96.60;;;;;;4955223;28;20222;-73
2022/04/16 08:28:50;;;;;;;3.95;2.63;;;17.90;96.10;;;;;;4954170;28;20203;-72
2022/04/16 08:31:16;;;;;;;3.00;1.65;;;18.60;96.10;;;;;;4955333;28;20266;-72
2022/04/16 08:33:41;;;;;;;5.63;2.67;;;18.70;93.20;;;;;;4955422;28;20229;-72
2022/04/16 08:36:07;;;;;;;8.02;4.07;;;19.10;92.00;;;;;;4955226;28;20211;-72
2022/04/16 08:38:32;;;;;;;2.45;1.40;;;19.60;90.90;;;;;;4954458;28;20215;-72
2022/04/16 08:41:00;;;;;;;1.25;0.95;;;19.20;90.30;;;;;;4937940;29;20206;-75
2022/04/16 08:43:26;;;;;;;2.00;1.02;;;17.30;91.20;;;;;;4937732;28;20230;-72
2022/04/16 08:45:55;;;;;;;2.38;0.90;;;16.10;94.10;;;;;;4955584;28;20191;-75
2022/04/16 08:48:20;;;;;;;1.60;1.17;;;15.20;96.30;;;;;;4954917;28;20213;-75
2022/04/16 08:50:47;;;;;;;2.05;1.02;;;15.60;97.80;;;;;;4947307;28;20207;-74
2022/04/16 08:53:14;;;;;;;4.23;1.03;;;14.90;98.20;;;;;;4936862;29;20787;-73
2022/04/16 08:55:39;;;;;;;1.97;1.27;;;14.00;99.90;;;;;;4955461;28;20581;-73
2022/04/16 08:58:05;;;;;;;1.93;1.00;;;13.60;99.90;;;;;;4937258;29;20179;-73
2022/04/16 09:00:31;;;;;;;2.40;1.20;;;13.60;99.90;;;;;;4955543;28;20598;-73
2022/04/16 09:02:58;;;;;;;2.30;1.00;;;13.50;99.90;;;;;;4954738;28;20215;-73
2022/04/16 09:05:26;;;;;;;2.07;1.20;;;14.20;99.90;;;;;;4954644;28;20245;-74
2022/04/16 09:07:53;;;;;;;4.40;1.00;;;13.70;99.90;;;;;;4954047;28;20214;-73
2022/04/16 09:10:20;;;;;;;1.77;1.20;;;14.10;99.90;;;;;;4954345;28;20751;-74
2022/04/16 09:12:50;;;;;;;5.50;1.50;;;15.20;99.90;;;;;;4947399;28;20175;-73
2022/04/16 09:15:15;;;;;;;6.87;4.43;;;15.50;99.90;;;;;;4937605;29;20211;-74
2022/04/16 09:17:41;;;;;;;4.83;2.60;;;15.90;99.90;;;;;;4954278;28;20214;-71
2022/04/16 09:20:12;;;;;;;4.90;2.43;;;16.20;98.70;;;;;;4953948;28;20223;-72
2022/04/16 09:22:39;;;;;;;3.63;2.23;;;15.70;96.40;;;;;;4954213;28;20702;-73
2022/04/16 09:25:17;;;;;;;6.50;2.92;;;15.90;96.50;;;;;;4954819;28;20338;-72
2022/04/16 09:27:49;;;;;;;1.92;1.13;;;15.80;98.00;;;;;;4954834;28;20182;-73
2022/04/16 09:30:25;;;;;;;0.98;0.82;;;15.90;96.80;;;;;;4954065;28;20203;-72
2022/04/16 09:32:52;;;;;;;1.40;1.10;;;15.30;95.70;;;;;;4946557;28;20211;-72
2022/04/16 09:35:36;;;;;;;6.03;2.75;;;15.90;96.20;;;;;;4950599;28;20211;-73
2022/04/16 09:38:03;;;;;;;1.77;0.90;;;15.90;96.30;;;;;;4947984;28;20273;-71
2022/04/16 09:40:31;;;;;;;8.30;3.85;;;15.10;96.50;;;;;;4954133;28;20258;-73
2022/04/16 09:43:01;;;;;;;1.35;0.85;;;14.90;98.80;;;;;;4953526;28;20175;-72
2022/04/16 09:45:27;;;;;;;3.95;2.30;;;15.20;96.50;;;;;;4954606;28;20234;-73
2022/04/16 09:47:53;;;;;;;4.15;1.95;;;15.30;97.10;;;;;;4954016;28;20264;-72
2022/04/16 09:50:23;;;;;;;0.93;0.70;;;15.10;97.10;;;;;;4936144;29;20219;-72
2022/04/16 09:52:53;;;;;;;1.40;0.90;;;15.50;95.70;;;;;;4950419;28;20211;-72
2022/04/16 09:55:21;;;;;;;1.30;0.80;;;14.60;96.10;;;;;;4954028;28;20581;-72
2022/04/16 09:57:58;;;;;;;2.43;1.70;;;13.30;99.00;;;;;;4946628;28;20202;-73
2022/04/16 10:00:25;;;;;;;3.37;1.40;;;13.30;99.70;;;;;;4936661;28;20684;-73
2022/04/16 10:02:53;;;;;;;2.03;1.17;;;14.20;96.00;;;;;;4953684;28;20576;-73
2022/04/16 10:05:20;;;;;;;0.83;0.83;;;14.60;95.10;;;;;;4936651;29;20207;-71
2022/04/16 10:07:46;;;;;;;4.63;2.20;;;13.70;94.80;;;;;;4945681;28;20207;-71
2022/04/16 10:10:18;;;;;;;1.67;0.80;;;13.40;97.00;;;;;;4952960;28;20555;-70
2022/04/16 10:13:05;;;;;;;1.60;1.07;;;13.10;97.00;;;;;;4953645;28;20207;-71
2022/04/16 10:16:01;;;;;;;2.37;0.97;;;12.80;98.70;;;;;;4954952;28;20219;-68
2022/04/16 10:18:28;;;;;;;2.73;0.90;;;13.60;98.30;;;;;;4953195;28;20680;-70
2022/04/16 10:20:58;;;;;;;1.17;0.67;;;14.20;97.10;;;;;;4953582;28;20219;-69
2022/04/16 10:23:39;;;;;;;2.37;0.80;;;14.40;95.40;;;;;;4952837;28;20284;-69
2022/04/16 10:26:06;;;;;;;1.73;0.90;;;15.10;98.80;;;;;;4936017;29;20230;-69
2022/04/16 10:28:40;;;;;;;0.83;0.70;;;15.00;94.80;;;;;;4952360;28;20222;-69
2022/04/16 10:31:17;;;;;;;2.13;1.07;;;13.50;94.30;;;;;;4933415;28;20190;-72
2022/04/16 10:34:13;;;;;;;2.97;0.93;;;13.40;97.30;;;;;;4947555;28;20206;-73
2022/04/16 10:36:48;;;;;;;1.63;1.03;;;13.80;99.90;;;;;;4951194;28;20215;-70
2022/04/16 10:39:15;;;;;;;1.43;0.67;;;13.90;96.20;;;;;;4952067;28;20305;-70
2022/04/16 10:42:17;;;;;;;2.20;0.70;;;13.70;96.30;;;;;;4952740;28;20246;-70
2022/04/16 10:44:47;;;;;;;1.77;0.77;;;13.60;96.80;;;;;;4948924;28;20757;-71
2022/04/16 10:47:17;;;;;;;2.37;0.77;;;13.30;96.90;;;;;;4952894;28;20281;-70
2022/04/16 10:49:43;;;;;;;1.77;1.00;;;13.40;97.90;;;;;;4939076;28;20223;-70
2022/04/16 10:52:22;;;;;;;4.00;1.00;;;14.00;96.80;;;;;;4943344;28;20262;-70
2022/04/16 10:54:48;;;;;;;1.20;0.80;;;14.40;96.30;;;;;;4945541;28;20333;-71
2022/04/16 10:57:21;;;;;;;1.00;0.70;;;14.50;94.20;;;;;;4935648;29;20265;-70
2022/04/16 10:59:47;;;;;;;1.07;0.60;;;13.90;94.90;;;;;;4944487;28;20286;-70
2022/04/16 11:02:25;;;;;;;1.83;1.10;;;14.10;95.60;;;;;;4951568;28;20369;-72
2022/04/16 11:05:00;;;;;;;1.10;0.80;;;14.50;96.70;;;;;;4945871;28;20307;-75
2022/04/16 11:07:27;;;;;;;2.83;1.00;;;14.80;96.80;;;;;;4931892;28;20231;-74
2022/04/16 11:09:53;;;;;;;1.67;0.90;;;14.90;96.00;;;;;;4952548;28;20641;-78
2022/04/16 11:12:20;;;;;;;2.00;0.90;;;15.20;95.40;;;;;;4953601;28;20221;-75
2022/04/16 11:14:52;;;;;;;2.58;0.52;;;15.40;95.20;;;;;;4934720;29;20600;-78
2022/04/16 11:17:19;;;;;;;2.50;0.82;;;15.00;93.40;;;;;;4952787;28;20692;-77
2022/04/16 11:19:45;;;;;;;1.35;0.80;;;14.80;93.60;;;;;;4940566;28;20214;-75
2022/04/16 11:22:11;;;;;;;2.47;0.75;;;14.80;93.20;;;;;;4933392;29;20279;-75
2022/04/16 11:24:37;;;;;;;1.58;0.90;;;14.70;92.40;;;;;;4950566;28;20206;-74
2022/04/16 11:35:22;;;;;;;1.70;0.90;;;14.90;93.30;;;;;;4952580;28;20213;-75
2022/04/16 11:37:56;;;;;;;1.20;0.82;;;15.10;93.50;;;;;;4944635;28;20207;-72
2022/04/16 11:40:22;;;;;;;1.10;0.60;;;15.20;92.10;;;;;;4935009;28;20270;-75
2022/04/16 11:42:48;;;;;;;1.30;1.00;;;15.10;91.30;;;;;;4952954;28;20587;-76
2022/04/16 11:45:15;;;;;;;1.52;0.98;;;15.30;91.80;;;;;;4952313;28;20643;-74
2022/04/16 11:47:41;;;;;;;0.88;0.70;;;14.90;92.50;;;;;;4951667;28;20696;-74
2022/04/16 11:50:09;;;;;;;2.38;0.70;;;15.00;94.10;;;;;;4951873;28;20249;-75
2022/04/16 11:52:36;;;;;;;1.77;1.10;;;15.00;94.40;;;;;;4933932;28;20246;-73
2022/04/16 11:55:07;;;;;;;2.83;0.85;;;15.00;95.60;;;;;;4952690;28;20231;-75
2022/04/16 11:57:34;;;;;;;1.10;1.00;;;15.40;94.60;;;;;;4953273;28;20262;-75
2022/04/16 12:00:10;;;;;;;7.30;3.35;;;15.30;94.20;;;;;;4952054;28;20218;-78
2022/04/16 12:02:38;;;;;;;6.20;3.25;;;14.90;95.50;;;;;;4952592;28;20295;-77
2022/04/16 12:05:08;;;;;;;3.38;1.30;;;15.10;96.00;;;;;;4952691;28;20219;-76
2022/04/16 12:07:34;;;;;;;2.13;0.85;;;15.00;95.80;;;;;;4936513;28;20230;-75
2022/04/16 12:10:02;;;;;;;1.90;1.08;;;15.20;95.60;;;;;;4951790;28;20186;-77
2022/04/16 12:12:28;;;;;;;2.97;1.50;;;15.20;94.00;;;;;;4952892;28;20183;-73
2022/04/16 12:14:54;;;;;;;1.98;0.80;;;15.20;94.00;;;;;;4934899;29;20605;-75
2022/04/16 12:17:25;;;;;;;1.73;0.88;;;15.40;93.00;;;;;;4952454;28;20332;-76
2022/04/16 12:20:04;;;;;;;2.13;0.90;;;15.10;92.20;;;;;;4944373;28;20218;-75
2022/04/16 12:22:29;;;;;;;1.92;0.93;;;15.10;91.00;;;;;;4934859;28;20289;-74
2022/04/16 12:25:06;;;;;;;1.60;0.90;;;14.90;91.20;;;;;;4935243;28;20298;-75
2022/04/16 12:27:31;;;;;;;3.90;0.98;;;15.10;90.60;;;;;;4955231;28;20199;-74
2022/04/16 12:29:59;;;;;;;1.80;0.70;;;15.30;90.60;;;;;;4937735;29;20715;-76
2022/04/16 12:32:26;;;;;;;1.10;0.60;;;14.90;90.20;;;;;;4955799;28;20211;-74
2022/04/16 12:34:52;;;;;;;1.80;0.90;;;14.50;90.40;;;;;;4948457;28;20293;-72
2022/04/16 12:37:18;;;;;;;1.40;0.90;;;14.50;91.70;;;;;;4955485;28;20748;-72
2022/04/16 12:39:43;;;;;;;3.78;0.90;;;14.20;92.30;;;;;;4955031;28;20568;-73
2022/04/16 12:42:09;;;;;;;1.00;0.70;;;14.10;92.40;;;;;;4955617;28;20230;-73
2022/04/16 12:44:35;;;;;;;2.83;0.70;;;13.60;91.90;;;;;;4955419;28;20223;-74
2022/04/16 12:47:00;;;;;;;3.33;1.20;;;13.50;91.40;;;;;;4938553;29;20629;-73
2022/04/16 12:49:25;;;;;;;1.58;0.50;;;13.70;92.40;;;;;;4937460;28;20274;-74
2022/04/16 12:51:51;;;;;;;1.05;0.80;;;13.90;91.60;;;;;;4956075;28;20531;-73
2022/04/16 12:54:16;;;;;;;1.27;0.60;;;14.00;91.10;;;;;;4937823;29;20318;-74
2022/04/16 12:56:42;;;;;;;3.70;2.03;;;14.00;90.40;;;;;;4954401;28;20649;-75
2022/04/16 12:59:09;;;;;;;2.75;1.92;;;14.00;90.40;;;;;;4954310;28;20207;-74
2022/04/16 13:01:34;;;;;;;2.77;0.90;;;14.00;88.00;;;;;;4937431;28;20215;-75
2022/04/16 13:04:00;;;;;;;4.80;1.85;;;14.10;87.60;;;;;;4954663;28;20250;-74
2022/04/16 13:06:26;;;;;;;1.63;0.98;;;14.20;87.00;;;;;;4955204;28;20201;-73
2022/04/16 13:08:56;;;;;;;2.05;1.30;;;14.20;86.30;;;;;;4954173;28;20681;-76
2022/04/16 13:11:21;;;;;;;1.85;1.02;;;14.30;86.50;;;;;;4955202;28;20214;-75
2022/04/16 13:13:48;;;;;;;1.17;0.80;;;14.40;87.20;;;;;;4954874;28;20218;-75